« Back
NWS Peachtree City, Ga » Text Product » MCN Terminal Aerodrome Forecast


Printer-friendly Version
Current Version              Previous Versions:   1  2  3  4  5  6  7  8  9  

Terminal Aerodrome Forecast

056
FTUS42 KFFC 210500
TAFMCN
TAF
KMCN 210532Z 2106/2206 31003KT P6SM SCT150 BKN250
     FM210800 31003KT 4SM BR SCT007
     FM211400 31004KT P6SM SCT025
     FM211700 30006KT P6SM SCT045
     FM220200 30002KT P6SM SKC=

USA.gov is the U.S. government's official web portal to all federal, state and local government web resources and services.